createdAt,value
2023-07-20T00:01:59.494Z,17.94
2023-07-20T00:04:01.687Z,17.99
2023-07-20T00:06:05.274Z,17.98
2023-07-20T00:08:06.844Z,17.97
2023-07-20T00:10:08.947Z,18.05
2023-07-20T00:12:10.574Z,18.05
2023-07-20T00:14:12.452Z,18.08
2023-07-20T00:16:14.187Z,18.11
2023-07-20T00:18:16.486Z,18.11
2023-07-20T00:20:18.877Z,18.11
2023-07-20T00:22:20.449Z,18.13
2023-07-20T00:24:22.074Z,18.08
2023-07-20T00:26:24.056Z,18.04
2023-07-20T00:28:26.036Z,18.07
2023-07-20T00:30:27.854Z,17.95
2023-07-20T00:32:29.579Z,18.03
2023-07-20T00:34:32.767Z,18.02
2023-07-20T00:36:34.308Z,18.06
2023-07-20T00:38:37.946Z,18.01
2023-07-20T00:40:41.150Z,17.96
2023-07-20T00:42:42.734Z,17.92
2023-07-20T00:44:44.408Z,17.88
2023-07-20T00:46:47.626Z,17.77
2023-07-20T00:48:49.453Z,17.72
2023-07-20T00:50:51.582Z,17.74
2023-07-20T00:52:53.857Z,17.67
2023-07-20T00:54:57.437Z,17.78
2023-07-20T00:56:59.920Z,17.75
2023-07-20T00:59:01.840Z,17.55
2023-07-20T01:01:03.564Z,17.59
2023-07-20T01:03:05.365Z,17.50
2023-07-20T01:05:08.549Z,17.50
2023-07-20T01:07:21.378Z,17.44
2023-07-20T01:09:32.966Z,17.49
2023-07-20T01:11:34.519Z,17.41
2023-07-20T01:13:38.108Z,17.40
2023-07-20T01:15:40.100Z,17.43
2023-07-20T01:17:41.798Z,17.50
2023-07-20T01:19:43.578Z,17.48
2023-07-20T01:22:10.245Z,17.41
2023-07-20T01:24:58.372Z,17.48
2023-07-20T01:27:35.090Z,17.61
2023-07-20T01:29:42.784Z,17.56
2023-07-20T01:31:45.642Z,17.56
2023-07-20T01:33:49.148Z,17.56
2023-07-20T01:35:57.712Z,17.53
2023-07-20T01:38:00.359Z,17.39
2023-07-20T01:40:03.209Z,17.27
2023-07-20T01:42:05.275Z,17.15
2023-07-20T01:44:06.922Z,17.02
2023-07-20T01:46:08.606Z,17.00
2023-07-20T01:48:10.897Z,16.95
2023-07-20T01:50:12.457Z,16.96
2023-07-20T01:52:14.070Z,16.95
2023-07-20T01:54:15.712Z,16.93
2023-07-20T01:56:17.792Z,16.92
2023-07-20T01:58:19.519Z,16.96
2023-07-20T02:00:24.927Z,16.97
2023-07-20T02:02:29.427Z,16.91
2023-07-20T02:04:43.246Z,16.82
2023-07-20T02:06:45.187Z,16.81
2023-07-20T02:08:47.201Z,16.79
2023-07-20T02:10:49.377Z,16.88
2023-07-20T02:12:51.905Z,16.80
2023-07-20T02:14:54.033Z,16.85
2023-07-20T02:16:58.910Z,16.82
2023-07-20T02:19:03.011Z,16.84
2023-07-20T02:21:04.724Z,16.78
2023-07-20T02:23:07.022Z,16.73
2023-07-20T02:25:09.184Z,16.72
2023-07-20T02:27:10.754Z,16.70
2023-07-20T02:29:12.802Z,16.56
2023-07-20T02:31:14.482Z,16.55
2023-07-20T02:33:16.186Z,16.51
2023-07-20T02:35:17.779Z,16.48
2023-07-20T02:37:19.730Z,16.47
2023-07-20T02:39:21.331Z,16.35
2023-07-20T02:41:23.259Z,16.28
2023-07-20T02:43:25.066Z,16.22
2023-07-20T02:45:26.662Z,16.25
2023-07-20T02:47:28.253Z,16.24
2023-07-20T02:49:29.934Z,16.12
2023-07-20T02:51:31.686Z,16.09
2023-07-20T02:53:34.270Z,16.10
2023-07-20T02:55:36.098Z,16.08
2023-07-20T02:57:37.648Z,16.15
2023-07-20T02:59:39.295Z,16.17
2023-07-20T03:01:43.750Z,16.07
2023-07-20T03:03:48.635Z,16.15
2023-07-20T03:05:55.339Z,16.14
2023-07-20T03:07:57.254Z,16.10
2023-07-20T03:09:58.991Z,16.13
2023-07-20T03:12:00.625Z,16.12
2023-07-20T03:14:02.245Z,16.07
2023-07-20T03:16:04.025Z,15.87
2023-07-20T03:18:05.821Z,15.87
2023-07-20T03:20:10.538Z,16.00
2023-07-20T03:22:12.068Z,15.87
2023-07-20T03:24:13.789Z,15.79
2023-07-20T03:26:15.774Z,15.99
2023-07-20T03:28:18.057Z,15.93
2023-07-20T03:30:19.922Z,16.04
2023-07-20T03:32:21.499Z,16.05
2023-07-20T03:34:23.073Z,16.08
2023-07-20T03:36:24.877Z,16.07
2023-07-20T03:38:27.943Z,15.95
2023-07-20T03:40:30.211Z,15.93
2023-07-20T03:42:31.920Z,15.87
2023-07-20T03:44:33.566Z,15.88
2023-07-20T03:46:35.270Z,15.85
2023-07-20T03:48:37.103Z,15.82
2023-07-20T03:50:39.405Z,15.83
2023-07-20T03:52:41.328Z,15.79
2023-07-20T03:54:43.769Z,15.74
2023-07-20T03:56:45.501Z,15.72
2023-07-20T03:58:47.287Z,15.77
2023-07-20T04:00:52.033Z,15.77
2023-07-20T04:02:53.906Z,15.81
2023-07-20T04:04:55.845Z,15.75
2023-07-20T04:06:57.909Z,15.83
2023-07-20T04:08:59.480Z,15.80
2023-07-20T04:11:04.216Z,15.82
2023-07-20T04:13:06.849Z,15.90
2023-07-20T04:15:09.310Z,15.92
2023-07-20T04:17:14.199Z,15.99
2023-07-20T04:19:15.846Z,16.00
2023-07-20T04:21:18.224Z,16.06
2023-07-20T04:23:19.874Z,16.05
2023-07-20T04:25:21.541Z,15.98
2023-07-20T04:27:23.724Z,16.00
2023-07-20T04:29:25.436Z,16.06
2023-07-20T04:31:27.018Z,16.20
2023-07-20T04:33:29.973Z,16.32
2023-07-20T04:35:52.906Z,16.48
2023-07-20T04:38:01.785Z,16.47
2023-07-20T04:40:04.544Z,16.49
2023-07-20T04:42:06.161Z,16.56
2023-07-20T04:44:07.887Z,16.62
2023-07-20T04:46:10.803Z,16.58
2023-07-20T04:48:15.194Z,16.55
2023-07-20T04:50:23.050Z,16.63
2023-07-20T04:52:37.499Z,16.66
2023-07-20T04:54:44.667Z,16.82
2023-07-20T04:56:50.412Z,16.86
2023-07-20T04:58:54.157Z,17.07
2023-07-20T05:00:55.926Z,17.12
2023-07-20T05:02:58.108Z,17.20
2023-07-20T05:04:59.843Z,17.20
2023-07-20T05:07:01.461Z,17.21
2023-07-20T05:09:03.246Z,17.22
2023-07-20T05:11:05.797Z,17.29
2023-07-20T05:13:08.155Z,17.44
2023-07-20T05:15:10.370Z,17.42
2023-07-20T05:17:14.622Z,17.53
2023-07-20T05:19:16.294Z,17.48
2023-07-20T05:21:17.909Z,17.58
2023-07-20T05:23:23.006Z,17.54
2023-07-20T05:25:25.011Z,17.51
2023-07-20T05:27:26.590Z,17.53
2023-07-20T05:29:28.336Z,17.63
2023-07-20T05:31:31.628Z,17.67
2023-07-20T05:33:33.351Z,17.87
2023-07-20T05:35:34.928Z,17.81
2023-07-20T05:37:36.510Z,17.87
2023-07-20T05:39:38.635Z,17.87
2023-07-20T05:41:40.191Z,17.87
2023-07-20T05:43:43.239Z,17.88
2023-07-20T05:45:48.924Z,17.82
2023-07-20T05:47:50.883Z,17.75
2023-07-20T05:49:52.595Z,17.68
2023-07-20T05:51:56.957Z,17.56
2023-07-20T05:53:58.947Z,17.46
2023-07-20T05:56:00.489Z,17.44
2023-07-20T05:58:02.683Z,17.49
2023-07-20T06:00:04.745Z,17.63
2023-07-20T06:02:13.805Z,17.85
2023-07-20T06:04:15.864Z,17.97
2023-07-20T06:06:17.557Z,18.03
2023-07-20T06:08:19.174Z,18.04
2023-07-20T06:10:20.789Z,18.08
2023-07-20T06:12:22.361Z,18.14
2023-07-20T06:14:23.909Z,18.23
2023-07-20T06:16:26.043Z,18.36
2023-07-20T06:18:27.968Z,18.48
2023-07-20T06:20:29.634Z,18.57
2023-07-20T06:22:31.305Z,18.45
2023-07-20T06:24:32.958Z,18.44
2023-07-20T06:26:40.209Z,18.54
2023-07-20T06:28:41.880Z,18.58
2023-07-20T06:30:43.441Z,18.56
2023-07-20T06:32:45.724Z,18.50
2023-07-20T06:34:47.634Z,18.58
2023-07-20T06:36:49.690Z,18.77
2023-07-20T06:40:55.933Z,18.86
2023-07-20T06:45:02.919Z,18.63
2023-07-20T06:47:06.321Z,18.79
2023-07-20T06:51:13.538Z,19.08
2023-07-20T06:53:15.118Z,19.11
2023-07-20T06:57:23.881Z,19.12
2023-07-20T06:59:25.868Z,19.13
2023-07-20T07:01:27.767Z,19.44
2023-07-20T07:03:29.983Z,19.63
2023-07-20T07:07:36.465Z,19.35
2023-07-20T07:09:38.344Z,19.14
2023-07-20T07:11:40.094Z,19.24
2023-07-20T07:13:41.917Z,19.37
2023-07-20T07:17:46.327Z,19.65
2023-07-20T07:19:49.723Z,19.68
2023-07-20T07:21:52.795Z,19.75
2023-07-20T07:23:55.431Z,19.87
2023-07-20T07:25:57.405Z,19.74
2023-07-20T07:27:58.932Z,19.62
2023-07-20T07:30:00.508Z,19.46
2023-07-20T07:32:02.693Z,19.38
2023-07-20T07:34:04.266Z,19.29
2023-07-20T07:36:06.005Z,19.15
2023-07-20T07:38:19.285Z,19.17
2023-07-20T07:40:26.350Z,19.19
2023-07-20T07:42:30.576Z,19.08
2023-07-20T07:44:32.551Z,19.15
2023-07-20T07:46:34.208Z,19.29
2023-07-20T07:48:35.806Z,18.96
2023-07-20T07:50:37.484Z,18.81
2023-07-20T07:52:39.019Z,18.87
2023-07-20T07:54:40.842Z,18.88
2023-07-20T07:56:42.453Z,18.83
2023-07-20T07:58:44.155Z,19.09
2023-07-20T08:00:45.766Z,19.29
2023-07-20T08:02:49.518Z,19.63
2023-07-20T08:04:53.570Z,20.09
2023-07-20T08:06:55.349Z,20.42
2023-07-20T08:08:56.960Z,20.25
2023-07-20T08:10:59.523Z,20.28
2023-07-20T08:13:01.259Z,20.21
2023-07-20T08:15:03.392Z,19.92
2023-07-20T08:17:05.909Z,19.83
2023-07-20T08:19:07.743Z,19.68
2023-07-20T08:21:09.417Z,19.47
2023-07-20T08:23:11.017Z,19.39
2023-07-20T08:25:13.209Z,19.25
2023-07-20T08:27:14.791Z,19.47
2023-07-20T08:29:16.436Z,19.66
2023-07-20T08:31:18.799Z,19.70
2023-07-20T08:33:21.434Z,20.01
2023-07-20T08:35:23.371Z,20.37
2023-07-20T08:37:26.158Z,20.39
2023-07-20T08:39:27.835Z,20.07
2023-07-20T08:41:29.622Z,20.22
2023-07-20T08:43:32.087Z,20.15
2023-07-20T08:45:35.958Z,20.34
2023-07-20T08:47:38.514Z,20.45
2023-07-20T08:49:42.111Z,20.36
2023-07-20T08:51:44.206Z,20.35
2023-07-20T08:53:48.385Z,20.44
2023-07-20T08:55:53.576Z,20.47
2023-07-20T08:58:00.397Z,20.57
2023-07-20T09:00:14.020Z,20.53
2023-07-20T09:02:19.749Z,20.50
2023-07-20T09:04:21.853Z,20.43
2023-07-20T09:06:24.201Z,20.44
2023-07-20T09:08:26.249Z,20.54
2023-07-20T09:10:27.953Z,20.41
2023-07-20T09:12:29.550Z,20.27
2023-07-20T09:14:32.487Z,20.07
2023-07-20T09:16:51.514Z,19.98
2023-07-20T09:18:54.422Z,19.93
2023-07-20T09:21:03.978Z,19.98
2023-07-20T09:25:16.786Z,19.99
2023-07-20T09:27:18.314Z,19.91
2023-07-20T09:29:21.127Z,19.85
2023-07-20T09:31:23.795Z,19.98
2023-07-20T09:33:28.811Z,20.03
2023-07-20T09:35:41.663Z,19.91
2023-07-20T09:40:18.214Z,20.59
2023-07-20T09:51:01.091Z,22.51
2023-07-20T09:55:09.631Z,21.80
2023-07-20T09:57:14.805Z,21.68
2023-07-20T09:59:17.127Z,21.58
2023-07-20T10:01:24.948Z,21.42
2023-07-20T10:03:33.121Z,21.42
2023-07-20T10:05:40.749Z,21.46
2023-07-20T10:07:48.426Z,21.35
2023-07-20T10:09:53.744Z,21.22
2023-07-20T10:12:15.238Z,21.35
2023-07-20T10:14:21.663Z,21.42
2023-07-20T10:16:30.483Z,21.43
2023-07-20T10:18:39.192Z,21.53
2023-07-20T10:21:43.693Z,21.53
2023-07-20T10:23:05.221Z,21.59
2023-07-20T10:25:08.035Z,21.42
2023-07-20T10:27:09.937Z,21.37
2023-07-20T10:29:13.490Z,21.38
2023-07-20T10:31:16.757Z,21.28
2023-07-20T10:33:20.289Z,21.24
2023-07-20T10:35:21.911Z,21.20
2023-07-20T10:37:53.950Z,21.37
2023-07-20T10:39:57.678Z,21.76
2023-07-20T10:42:09.067Z,22.41
2023-07-20T10:44:11.445Z,22.98
2023-07-20T10:46:13.876Z,23.33
2023-07-20T10:48:18.208Z,23.52
2023-07-20T10:50:24.138Z,23.85
2023-07-20T10:52:25.982Z,23.97
2023-07-20T10:54:27.528Z,24.19
2023-07-20T10:56:32.107Z,24.29
2023-07-20T10:58:34.939Z,24.16
2023-07-20T11:00:37.199Z,24.26
2023-07-20T11:02:51.338Z,24.26
2023-07-20T11:04:54.354Z,24.32
2023-07-20T11:06:56.687Z,24.54
2023-07-20T11:09:16.243Z,24.75
2023-07-20T11:11:25.088Z,24.51
2023-07-20T11:13:27.847Z,24.38
2023-07-20T11:15:48.149Z,24.51
2023-07-20T11:17:50.660Z,24.09
2023-07-20T11:22:08.634Z,24.96
2023-07-20T11:24:11.352Z,25.26
2023-07-20T11:26:13.962Z,25.18
2023-07-20T11:28:15.525Z,25.51
2023-07-20T11:30:17.647Z,25.19
2023-07-20T11:32:23.362Z,25.08
2023-07-20T11:34:25.838Z,25.24
2023-07-20T11:38:31.879Z,25.60
2023-07-20T11:40:33.755Z,25.44
2023-07-20T11:44:40.170Z,24.87
2023-07-20T11:46:45.783Z,24.66
2023-07-20T11:48:47.442Z,24.58
2023-07-20T11:50:49.274Z,24.41
2023-07-20T11:52:51.226Z,24.18
2023-07-20T11:54:53.360Z,23.77
2023-07-20T11:56:56.845Z,23.65
2023-07-20T11:59:01.204Z,23.45
2023-07-20T12:01:03.525Z,23.43
2023-07-20T12:03:11.080Z,23.25
2023-07-20T12:05:12.820Z,22.92
2023-07-20T12:07:14.537Z,22.68
2023-07-20T12:09:18.531Z,22.45
2023-07-20T12:11:36.676Z,22.35
2023-07-20T12:13:39.041Z,22.32
2023-07-20T12:15:40.725Z,22.32
2023-07-20T12:17:46.666Z,22.39
2023-07-20T12:19:48.757Z,22.57
2023-07-20T12:21:50.773Z,22.70
2023-07-20T12:23:52.359Z,23.03
2023-07-20T12:25:55.083Z,23.36
2023-07-20T12:28:03.384Z,23.36
2023-07-20T12:30:07.083Z,23.37
2023-07-20T12:32:09.087Z,23.65
2023-07-20T12:34:12.199Z,24.12
2023-07-20T12:36:13.823Z,24.49
2023-07-20T12:38:15.544Z,24.91
2023-07-20T12:40:17.557Z,25.38
2023-07-20T12:42:19.101Z,25.81
2023-07-20T12:44:20.727Z,26.28
2023-07-20T12:46:24.082Z,26.77
2023-07-20T12:48:26.383Z,27.19
2023-07-20T12:50:28.179Z,27.64
2023-07-20T12:52:29.881Z,27.81
2023-07-20T12:54:32.317Z,27.53
2023-07-20T12:58:41.452Z,27.52
2023-07-20T13:00:46.481Z,27.53
2023-07-20T13:02:48.441Z,27.88
2023-07-20T13:04:50.597Z,27.97
2023-07-20T13:06:52.335Z,28.09
2023-07-20T13:08:56.932Z,27.74
2023-07-20T13:10:58.649Z,27.45
2023-07-20T13:13:01.843Z,27.02
2023-07-20T13:15:07.106Z,26.69
2023-07-20T13:17:11.296Z,26.66
2023-07-20T13:19:13.242Z,26.86
2023-07-20T13:21:15.018Z,27.27
2023-07-20T13:23:16.712Z,27.96
2023-07-20T13:25:20.622Z,28.51
2023-07-20T13:27:23.634Z,28.92
2023-07-20T13:29:26.215Z,28.73
2023-07-20T13:31:29.345Z,28.35
2023-07-20T13:33:31.225Z,27.63
2023-07-20T13:35:48.902Z,27.29
2023-07-20T13:37:51.874Z,27.06
2023-07-20T13:39:54.164Z,26.83
2023-07-20T13:41:55.896Z,26.84
2023-07-20T13:43:58.159Z,27.06
2023-07-20T13:46:00.205Z,27.48
2023-07-20T13:48:03.702Z,27.97
2023-07-20T13:50:08.789Z,28.47
2023-07-20T13:56:21.229Z,29.10
2023-07-20T13:58:23.047Z,29.20
2023-07-20T14:00:28.564Z,28.32
2023-07-20T14:04:35.181Z,26.74
2023-07-20T14:06:37.581Z,26.08
2023-07-20T14:08:39.737Z,25.54
2023-07-20T14:12:46.155Z,25.84
2023-07-20T14:14:47.685Z,26.32
2023-07-20T14:16:49.246Z,26.25
2023-07-20T14:18:51.525Z,26.42
2023-07-20T14:20:53.192Z,25.98
2023-07-20T14:22:54.735Z,25.68
2023-07-20T14:24:59.246Z,25.72
2023-07-20T14:27:01.942Z,25.56
2023-07-20T14:29:03.671Z,25.39
2023-07-20T14:31:06.314Z,25.28
2023-07-20T14:33:08.141Z,25.65
2023-07-20T14:35:11.059Z,26.04
2023-07-20T14:37:14.653Z,26.18
2023-07-20T14:39:16.569Z,26.54
2023-07-20T14:43:20.121Z,27.62
2023-07-20T14:45:22.234Z,28.15
2023-07-20T14:47:23.946Z,28.60
2023-07-20T14:49:27.260Z,29.01
2023-07-20T14:53:38.827Z,28.93
2023-07-20T14:55:43.289Z,29.19
2023-07-20T14:57:44.929Z,28.85
2023-07-20T14:59:46.431Z,28.53
2023-07-20T15:01:48.012Z,28.13
2023-07-20T15:03:53.309Z,28.49
2023-07-20T15:05:54.949Z,28.83
2023-07-20T15:07:56.600Z,29.18
2023-07-20T15:09:58.214Z,29.84
2023-07-20T15:11:59.783Z,29.68
2023-07-20T15:14:01.697Z,30.18
2023-07-20T15:16:03.425Z,30.33
2023-07-20T15:18:04.996Z,30.77
2023-07-20T15:20:09.033Z,31.07
2023-07-20T15:22:11.126Z,30.93
2023-07-20T15:24:13.842Z,30.93
2023-07-20T15:26:16.001Z,30.55
2023-07-20T15:28:17.564Z,30.19
2023-07-20T15:32:24.697Z,29.36
2023-07-20T15:34:26.208Z,29.08
2023-07-20T15:36:28.095Z,28.84
2023-07-20T15:38:29.684Z,28.64
2023-07-20T15:40:31.367Z,28.45
2023-07-20T15:44:37.738Z,28.07
2023-07-20T15:46:42.414Z,27.64
2023-07-20T15:48:45.853Z,27.44
2023-07-20T15:50:47.478Z,27.65
2023-07-20T15:54:55.807Z,28.37
2023-07-20T15:56:58.296Z,28.53
2023-07-20T15:59:00.273Z,28.30
2023-07-20T16:01:02.028Z,28.31
2023-07-20T16:03:03.924Z,28.19
2023-07-20T16:07:10.302Z,27.63
2023-07-20T16:09:11.781Z,27.36
2023-07-20T16:11:13.512Z,27.02
2023-07-20T16:13:15.063Z,26.63
2023-07-20T16:15:53.437Z,26.58
2023-07-20T16:17:38.487Z,26.34
2023-07-20T16:19:40.081Z,25.82
2023-07-20T16:21:41.621Z,25.75
2023-07-20T16:23:44.191Z,25.57
2023-07-20T16:25:47.521Z,25.48
2023-07-20T16:27:49.107Z,25.48
2023-07-20T16:29:50.737Z,25.46
2023-07-20T16:36:01.624Z,25.32
2023-07-20T16:42:17.133Z,25.36
2023-07-20T16:44:18.684Z,25.21
2023-07-20T16:48:25.201Z,25.25
2023-07-20T16:50:27.222Z,25.32
2023-07-20T16:52:29.163Z,25.10
2023-07-20T16:54:30.833Z,25.31
2023-07-20T16:56:32.531Z,25.36
2023-07-20T16:58:35.171Z,25.43
2023-07-20T17:00:38.017Z,25.54
2023-07-20T17:02:40.256Z,25.50
2023-07-20T17:04:41.911Z,25.43
2023-07-20T17:06:43.587Z,25.45
2023-07-20T17:08:45.122Z,25.49
2023-07-20T17:10:46.748Z,25.59
2023-07-20T17:12:48.448Z,25.60
2023-07-20T17:14:50.912Z,25.65
2023-07-20T17:16:53.059Z,25.71
2023-07-20T17:18:56.152Z,25.56
2023-07-20T17:20:58.047Z,25.47
2023-07-20T17:22:59.592Z,25.38
2023-07-20T17:29:10.532Z,25.17
2023-07-20T17:31:12.254Z,25.22
2023-07-20T17:33:15.859Z,25.15
2023-07-20T17:35:17.510Z,24.96
2023-07-20T17:37:21.834Z,24.77
2023-07-20T17:40:36.769Z,24.72
2023-07-20T17:41:46.780Z,24.53
2023-07-20T17:43:48.518Z,24.35
2023-07-20T17:45:54.993Z,24.32
2023-07-20T17:47:57.098Z,24.37
2023-07-20T17:49:59.168Z,24.31
2023-07-20T17:52:00.839Z,24.18
2023-07-20T17:54:02.528Z,24.04
2023-07-20T17:56:04.246Z,24.01
2023-07-20T17:58:05.940Z,24.00
2023-07-20T18:02:15.369Z,24.00
2023-07-20T18:04:17.342Z,24.06
2023-07-20T18:06:19.219Z,23.97
2023-07-20T18:08:20.986Z,23.97
2023-07-20T18:10:22.681Z,24.00
2023-07-20T18:12:25.095Z,24.02
2023-07-20T18:14:26.728Z,23.93
2023-07-20T18:16:28.706Z,23.95
2023-07-20T18:18:30.635Z,23.95
2023-07-20T18:20:33.997Z,24.07
2023-07-20T18:22:37.157Z,24.04
2023-07-20T18:24:39.115Z,23.77
2023-07-20T18:26:40.593Z,23.78
2023-07-20T18:28:42.095Z,23.74
2023-07-20T18:30:45.725Z,23.69
2023-07-20T18:32:48.253Z,23.56
2023-07-20T18:34:50.403Z,23.52
2023-07-20T18:36:52.394Z,23.42
2023-07-20T18:38:55.101Z,23.30
2023-07-20T18:40:56.719Z,23.30
2023-07-20T18:42:59.007Z,23.27
2023-07-20T18:45:00.614Z,23.24
2023-07-20T18:47:02.353Z,23.11
2023-07-20T18:49:03.963Z,23.12
2023-07-20T18:51:07.946Z,23.08
2023-07-20T18:53:09.676Z,23.00
2023-07-20T18:55:11.335Z,22.91
2023-07-20T18:57:12.853Z,22.82
2023-07-20T18:59:15.229Z,22.70
2023-07-20T19:01:17.041Z,22.69
2023-07-20T19:03:18.851Z,22.62
2023-07-20T19:05:21.360Z,22.58
2023-07-20T19:07:22.922Z,22.45
2023-07-20T19:09:24.508Z,22.47
2023-07-20T19:13:32.699Z,22.23
2023-07-20T19:15:36.515Z,22.19
2023-07-20T19:17:38.424Z,22.14
2023-07-20T19:19:40.096Z,22.15
2023-07-20T19:21:41.797Z,22.12
2023-07-20T19:23:43.720Z,22.02
2023-07-20T19:25:45.463Z,22.09
2023-07-20T19:27:47.531Z,22.16
2023-07-20T19:29:49.094Z,22.17
2023-07-20T19:31:50.771Z,22.00
2023-07-20T19:33:52.323Z,21.95
2023-07-20T19:35:54.234Z,21.92
2023-07-20T19:37:56.209Z,21.72
2023-07-20T19:39:57.826Z,21.69
2023-07-20T19:41:59.729Z,21.65
2023-07-20T19:44:01.252Z,21.69
2023-07-20T19:46:03.932Z,21.68
2023-07-20T19:48:07.421Z,21.64
2023-07-20T19:50:09.580Z,21.67
2023-07-20T19:52:12.155Z,21.73
2023-07-20T19:56:18.403Z,21.69
2023-07-20T19:58:19.949Z,21.61
2023-07-20T20:01:43.886Z,21.63
2023-07-20T20:04:56.703Z,21.58
2023-07-20T20:07:00.916Z,21.59
2023-07-20T20:09:02.885Z,21.46
2023-07-20T20:13:10.015Z,21.31
2023-07-20T20:15:11.947Z,21.19
2023-07-20T20:17:13.680Z,21.16
2023-07-20T20:19:15.431Z,21.11
2023-07-20T20:21:17.258Z,21.18
2023-07-20T20:23:20.858Z,21.14
2023-07-20T20:25:22.503Z,21.02
2023-07-20T20:27:24.750Z,20.94
2023-07-20T20:29:26.415Z,20.92
2023-07-20T20:31:28.240Z,20.98
2023-07-20T20:33:29.846Z,20.99
2023-07-20T20:35:34.547Z,21.00
2023-07-20T20:37:37.003Z,21.05
2023-07-20T20:39:38.701Z,20.96
2023-07-20T20:41:47.419Z,21.01
2023-07-20T20:43:49.469Z,21.05
2023-07-20T20:45:51.941Z,21.06
2023-07-20T20:47:53.450Z,21.02
2023-07-20T20:49:55.321Z,20.83
2023-07-20T20:51:57.302Z,20.95
2023-07-20T20:53:59.041Z,20.78
2023-07-20T20:56:01.169Z,20.86
2023-07-20T20:58:03.038Z,20.87
2023-07-20T21:00:07.670Z,20.87
2023-07-20T21:02:10.396Z,20.74
2023-07-20T21:04:11.977Z,20.70
2023-07-20T21:06:13.571Z,20.71
2023-07-20T21:08:16.305Z,20.80
2023-07-20T21:10:18.645Z,20.81
2023-07-20T21:12:20.179Z,20.80
2023-07-20T21:14:21.709Z,20.83
2023-07-20T21:16:23.719Z,20.80
2023-07-20T21:18:25.439Z,20.78
2023-07-20T21:20:27.007Z,20.79
2023-07-20T21:22:28.805Z,20.77
2023-07-20T21:24:30.426Z,20.51
2023-07-20T21:26:32.037Z,20.46
2023-07-20T21:28:33.710Z,20.53
2023-07-20T21:30:35.605Z,20.60
2023-07-20T21:32:38.116Z,20.54
2023-07-20T21:34:39.984Z,20.57
2023-07-20T21:36:42.378Z,20.44
2023-07-20T21:38:44.036Z,20.47
2023-07-20T21:40:45.570Z,20.56
2023-07-20T21:42:47.430Z,20.48
2023-07-20T21:44:49.042Z,20.55
2023-07-20T21:46:51.303Z,20.41
2023-07-20T21:48:52.853Z,20.21
2023-07-20T21:50:55.683Z,19.83
2023-07-20T21:52:59.626Z,19.60
2023-07-20T21:55:04.435Z,19.04
2023-07-20T21:57:08.382Z,18.69
2023-07-20T21:59:10.351Z,18.67
2023-07-20T22:01:40.303Z,18.51
2023-07-20T22:03:33.578Z,18.41
2023-07-20T22:05:35.800Z,18.37
2023-07-20T22:07:37.879Z,18.15
2023-07-20T22:09:40.440Z,17.97
2023-07-20T22:11:42.263Z,18.00
2023-07-20T22:13:43.943Z,17.74
2023-07-20T22:15:45.628Z,17.82
2023-07-20T22:17:47.691Z,17.67
2023-07-20T22:19:49.355Z,17.67
2023-07-20T22:21:51.312Z,17.55
2023-07-20T22:23:52.894Z,17.51
2023-07-20T22:25:54.513Z,17.61
2023-07-20T22:27:56.025Z,17.56
2023-07-20T22:29:57.605Z,17.51
2023-07-20T22:31:59.461Z,17.57
2023-07-20T22:34:01.092Z,17.53
2023-07-20T22:36:03.041Z,17.60
2023-07-20T22:38:04.639Z,17.66
2023-07-20T22:40:07.037Z,17.71
2023-07-20T22:42:08.778Z,17.67
2023-07-20T22:44:10.348Z,17.72
2023-07-20T22:46:12.059Z,17.64
2023-07-20T22:48:16.449Z,17.60
2023-07-20T22:50:18.626Z,17.62
2023-07-20T22:52:20.122Z,17.56
2023-07-20T22:54:22.167Z,17.52
2023-07-20T22:56:23.979Z,17.48
2023-07-20T22:58:25.793Z,17.46
2023-07-20T23:00:29.660Z,17.53
2023-07-20T23:02:31.790Z,17.42
2023-07-20T23:04:34.876Z,17.44
2023-07-20T23:06:36.735Z,17.46
2023-07-20T23:08:38.380Z,17.54
2023-07-20T23:10:39.960Z,17.40
2023-07-20T23:12:41.872Z,17.37
2023-07-20T23:14:43.579Z,17.42
2023-07-20T23:16:45.359Z,17.33
2023-07-20T23:18:47.619Z,17.43
2023-07-20T23:20:49.482Z,17.33
2023-07-20T23:22:52.291Z,17.06
2023-07-20T23:24:54.026Z,17.09
2023-07-20T23:26:56.123Z,17.24
2023-07-20T23:28:57.591Z,17.18
2023-07-20T23:31:00.637Z,17.26
2023-07-20T23:33:02.291Z,17.30
2023-07-20T23:35:04.127Z,17.18
2023-07-20T23:37:06.545Z,17.15
2023-07-20T23:39:09.430Z,17.10
2023-07-20T23:41:11.112Z,17.19
2023-07-20T23:43:13.102Z,17.26
2023-07-20T23:45:15.393Z,17.35
2023-07-20T23:47:18.266Z,17.40
2023-07-20T23:49:20.712Z,17.37
2023-07-20T23:51:24.954Z,17.27
2023-07-20T23:53:26.657Z,17.33
2023-07-20T23:55:29.423Z,17.33
2023-07-20T23:57:32.478Z,17.33
2023-07-20T23:59:35.455Z,17.34
